sensor_id;sensor_type;location;lat;lon;timestamp;pressure;altitude;pressure_sealevel;temperature;humidity
74079;BME280;62437;51.544;-3.276;2023-03-23T00:02:19;98935.95;;;4.59;69.71
74079;BME280;62437;51.544;-3.276;2023-03-23T00:04:44;98933.17;;;6.71;66.70
74079;BME280;62437;51.544;-3.276;2023-03-23T00:07:10;98929.29;;;4.96;69.78
74079;BME280;62437;51.544;-3.276;2023-03-23T00:09:37;98925.71;;;6.72;67.00
74079;BME280;62437;51.544;-3.276;2023-03-23T00:12:01;98932.20;;;5.06;71.11
74079;BME280;62437;51.544;-3.276;2023-03-23T00:14:27;98936.76;;;5.01;71.53
74079;BME280;62437;51.544;-3.276;2023-03-23T00:16:53;98937.59;;;6.28;67.43
74079;BME280;62437;51.544;-3.276;2023-03-23T00:19:18;98936.37;;;4.56;72.05
74079;BME280;62437;51.544;-3.276;2023-03-23T00:21:45;98939.29;;;5.42;69.20
74079;BME280;62437;51.544;-3.276;2023-03-23T00:24:11;98938.38;;;6.32;66.58
74079;BME280;62437;51.544;-3.276;2023-03-23T00:26:37;98943.06;;;5.19;70.55
74079;BME280;62437;51.544;-3.276;2023-03-23T00:29:02;98944.83;;;5.41;69.25
74079;BME280;62437;51.544;-3.276;2023-03-23T00:31:28;98945.07;;;5.26;71.99
74079;BME280;62437;51.544;-3.276;2023-03-23T00:33:53;98943.16;;;4.40;72.29
74079;BME280;62437;51.544;-3.276;2023-03-23T00:36:19;98948.19;;;5.12;72.89
74079;BME280;62437;51.544;-3.276;2023-03-23T00:38:44;98947.94;;;7.04;67.08
74079;BME280;62437;51.544;-3.276;2023-03-23T00:41:10;98951.95;;;5.34;70.33
74079;BME280;62437;51.544;-3.276;2023-03-23T00:43:35;98953.40;;;5.00;72.65
74079;BME280;62437;51.544;-3.276;2023-03-23T00:46:02;98949.19;;;6.41;68.99
74079;BME280;62437;51.544;-3.276;2023-03-23T00:48:28;98955.96;;;6.31;69.08
74079;BME280;62437;51.544;-3.276;2023-03-23T00:50:53;98955.02;;;6.35;68.42
74079;BME280;62437;51.544;-3.276;2023-03-23T00:53:19;98959.04;;;5.09;71.93
74079;BME280;62437;51.544;-3.276;2023-03-23T00:55:45;98967.52;;;5.79;70.80
74079;BME280;62437;51.544;-3.276;2023-03-23T00:58:10;98964.98;;;5.64;71.28
74079;BME280;62437;51.544;-3.276;2023-03-23T01:00:36;98961.96;;;8.12;64.45
74079;BME280;62437;51.544;-3.276;2023-03-23T01:03:01;98960.26;;;7.93;64.65
74079;BME280;62437;51.544;-3.276;2023-03-23T01:05:27;98964.83;;;7.80;64.88
74079;BME280;62437;51.544;-3.276;2023-03-23T01:07:52;98965.08;;;7.93;64.75
74079;BME280;62437;51.544;-3.276;2023-03-23T01:10:18;98971.43;;;8.11;63.15
74079;BME280;62437;51.544;-3.276;2023-03-23T01:12:45;98972.40;;;6.79;66.61
74079;BME280;62437;51.544;-3.276;2023-03-23T01:15:14;98977.11;;;6.81;67.53
74079;BME280;62437;51.544;-3.276;2023-03-23T01:17:35;98979.69;;;6.81;67.52
74079;BME280;62437;51.544;-3.276;2023-03-23T01:20:01;98984.44;;;6.54;67.82
74079;BME280;62437;51.544;-3.276;2023-03-23T01:22:27;98983.19;;;6.03;69.20
74079;BME280;62437;51.544;-3.276;2023-03-23T01:24:52;98980.72;;;7.97;63.88
74079;BME280;62437;51.544;-3.276;2023-03-23T01:27:18;98985.47;;;7.58;62.78
74079;BME280;62437;51.544;-3.276;2023-03-23T01:29:44;98988.44;;;7.07;65.50
74079;BME280;62437;51.544;-3.276;2023-03-23T01:32:10;98992.99;;;6.30;67.28
74079;BME280;62437;51.544;-3.276;2023-03-23T01:34:36;98991.17;;;7.27;64.06
74079;BME280;62437;51.544;-3.276;2023-03-23T01:37:01;98992.52;;;6.21;66.47
74079;BME280;62437;51.544;-3.276;2023-03-23T01:39:27;98996.46;;;7.23;64.33
74079;BME280;62437;51.544;-3.276;2023-03-23T01:41:52;98992.50;;;6.69;64.90
74079;BME280;62437;51.544;-3.276;2023-03-23T01:46:44;99004.84;;;6.31;66.88
74079;BME280;62437;51.544;-3.276;2023-03-23T01:49:12;99004.76;;;6.96;63.93
74079;BME280;62437;51.544;-3.276;2023-03-23T01:51:39;99005.61;;;5.85;66.93
74079;BME280;62437;51.544;-3.276;2023-03-23T01:54:03;99006.67;;;7.88;61.13
74079;BME280;62437;51.544;-3.276;2023-03-23T01:56:31;99006.73;;;7.20;63.10
74079;BME280;62437;51.544;-3.276;2023-03-23T01:58:53;99008.99;;;6.10;66.53
74079;BME280;62437;51.544;-3.276;2023-03-23T02:01:18;99009.60;;;7.04;64.06
74079;BME280;62437;51.544;-3.276;2023-03-23T02:03:46;99003.09;;;6.60;65.47
74079;BME280;62437;51.544;-3.276;2023-03-23T02:06:09;99004.62;;;6.42;64.93
74079;BME280;62437;51.544;-3.276;2023-03-23T02:08:35;99001.46;;;7.25;63.23
74079;BME280;62437;51.544;-3.276;2023-03-23T02:11:01;99007.15;;;6.72;64.23
74079;BME280;62437;51.544;-3.276;2023-03-23T02:13:27;99008.32;;;6.91;63.27
74079;BME280;62437;51.544;-3.276;2023-03-23T02:16:01;99010.32;;;5.83;67.42
74079;BME280;62437;51.544;-3.276;2023-03-23T02:18:29;99007.82;;;6.97;63.55
74079;BME280;62437;51.544;-3.276;2023-03-23T02:20:54;99007.82;;;6.27;65.81
74079;BME280;62437;51.544;-3.276;2023-03-23T02:23:22;99006.84;;;6.75;63.09
74079;BME280;62437;51.544;-3.276;2023-03-23T02:28:16;99005.85;;;6.32;64.78
74079;BME280;62437;51.544;-3.276;2023-03-23T02:30:36;99004.82;;;6.47;64.40
74079;BME280;62437;51.544;-3.276;2023-03-23T02:35:20;99003.93;;;6.83;62.95
74079;BME280;62437;51.544;-3.276;2023-03-23T02:37:48;99004.28;;;7.35;61.98
74079;BME280;62437;51.544;-3.276;2023-03-23T02:40:14;99005.84;;;5.71;66.14
74079;BME280;62437;51.544;-3.276;2023-03-23T02:42:37;99018.93;;;4.14;69.29
74079;BME280;62437;51.544;-3.276;2023-03-23T02:45:04;99007.92;;;6.06;64.87
74079;BME280;62437;51.544;-3.276;2023-03-23T02:47:27;99013.39;;;4.73;69.09
74079;BME280;62437;51.544;-3.276;2023-03-23T02:49:54;99008.94;;;5.95;65.39
74079;BME280;62437;51.544;-3.276;2023-03-23T02:52:21;99004.58;;;5.97;63.67
74079;BME280;62437;51.544;-3.276;2023-03-23T02:54:44;99007.13;;;4.80;68.99
74079;BME280;62437;51.544;-3.276;2023-03-23T02:57:09;99003.35;;;5.73;65.93
74079;BME280;62437;51.544;-3.276;2023-03-23T02:59:35;99003.42;;;5.32;67.40
74079;BME280;62437;51.544;-3.276;2023-03-23T03:02:05;98999.37;;;5.39;65.30
74079;BME280;62437;51.544;-3.276;2023-03-23T03:04:28;99000.17;;;6.06;63.54
74079;BME280;62437;51.544;-3.276;2023-03-23T03:09:24;99001.63;;;6.18;64.20
74079;BME280;62437;51.544;-3.276;2023-03-23T03:11:49;99002.63;;;6.19;63.03
74079;BME280;62437;51.544;-3.276;2023-03-23T03:14:13;99001.52;;;5.39;65.55
74079;BME280;62437;51.544;-3.276;2023-03-23T03:16:38;99000.13;;;5.63;65.06
74079;BME280;62437;51.544;-3.276;2023-03-23T03:19:03;99001.43;;;4.59;67.61
74079;BME280;62437;51.544;-3.276;2023-03-23T03:21:29;99006.81;;;4.12;69.23
74079;BME280;62437;51.544;-3.276;2023-03-23T03:23:53;99004.55;;;4.99;67.33
74079;BME280;62437;51.544;-3.276;2023-03-23T03:26:18;98997.21;;;6.54;62.27
74079;BME280;62437;51.544;-3.276;2023-03-23T03:28:44;98996.06;;;5.82;65.30
74079;BME280;62437;51.544;-3.276;2023-03-23T03:31:09;99000.96;;;4.29;69.00
74079;BME280;62437;51.544;-3.276;2023-03-23T03:33:35;99005.35;;;4.12;69.79
74079;BME280;62437;51.544;-3.276;2023-03-23T03:36:03;98998.17;;;5.22;67.04
74079;BME280;62437;51.544;-3.276;2023-03-23T03:38:28;99001.65;;;5.53;64.79
74079;BME280;62437;51.544;-3.276;2023-03-23T03:40:53;99002.41;;;5.62;64.76
74079;BME280;62437;51.544;-3.276;2023-03-23T03:43:18;99007.05;;;5.55;65.31
74079;BME280;62437;51.544;-3.276;2023-03-23T03:45:44;99015.72;;;4.49;66.72
74079;BME280;62437;51.544;-3.276;2023-03-23T03:48:10;99013.64;;;5.05;67.65
74079;BME280;62437;51.544;-3.276;2023-03-23T03:50:35;99007.67;;;5.48;65.24
74079;BME280;62437;51.544;-3.276;2023-03-23T03:53:01;99007.99;;;5.40;64.95
74079;BME280;62437;51.544;-3.276;2023-03-23T03:55:27;99009.80;;;5.27;66.48
74079;BME280;62437;51.544;-3.276;2023-03-23T03:57:52;99008.15;;;5.49;65.17
74079;BME280;62437;51.544;-3.276;2023-03-23T04:00:18;99006.06;;;5.93;64.08
74079;BME280;62437;51.544;-3.276;2023-03-23T04:02:46;99006.60;;;4.24;68.38
74079;BME280;62437;51.544;-3.276;2023-03-23T04:05:10;99002.54;;;4.26;67.49
74079;BME280;62437;51.544;-3.276;2023-03-23T04:07:36;98999.85;;;4.78;66.51
74079;BME280;62437;51.544;-3.276;2023-03-23T04:10:01;99005.62;;;4.69;67.90
74079;BME280;62437;51.544;-3.276;2023-03-23T04:12:27;98996.94;;;5.64;62.71
74079;BME280;62437;51.544;-3.276;2023-03-23T04:14:53;98997.91;;;5.33;64.69
74079;BME280;62437;51.544;-3.276;2023-03-23T04:17:18;99001.50;;;4.35;68.05
74079;BME280;62437;51.544;-3.276;2023-03-23T04:19:44;98999.66;;;3.69;70.03
74079;BME280;62437;51.544;-3.276;2023-03-23T04:22:10;98992.00;;;4.85;66.87
74079;BME280;62437;51.544;-3.276;2023-03-23T04:24:35;98991.12;;;5.12;65.02
74079;BME280;62437;51.544;-3.276;2023-03-23T04:27:01;98995.23;;;4.28;69.22
74079;BME280;62437;51.544;-3.276;2023-03-23T04:29:27;98991.86;;;4.57;68.52
74079;BME280;62437;51.544;-3.276;2023-03-23T04:31:53;98980.17;;;6.16;64.07
74079;BME280;62437;51.544;-3.276;2023-03-23T04:34:19;98981.50;;;4.00;71.02
74079;BME280;62437;51.544;-3.276;2023-03-23T04:36:44;98979.28;;;4.61;69.81
74079;BME280;62437;51.544;-3.276;2023-03-23T04:39:10;98981.69;;;4.37;71.49
74079;BME280;62437;51.544;-3.276;2023-03-23T04:41:36;98967.64;;;5.31;68.67
74079;BME280;62437;51.544;-3.276;2023-03-23T04:44:02;98966.65;;;4.76;68.54
74079;BME280;62437;51.544;-3.276;2023-03-23T04:46:27;98965.16;;;4.66;69.82
74079;BME280;62437;51.544;-3.276;2023-03-23T04:48:53;98961.31;;;5.92;65.24
74079;BME280;62437;51.544;-3.276;2023-03-23T04:51:18;98974.28;;;5.89;65.89
74079;BME280;62437;51.544;-3.276;2023-03-23T04:53:44;98976.44;;;6.89;63.51
74079;BME280;62437;51.544;-3.276;2023-03-23T04:56:10;98976.13;;;6.27;65.28
74079;BME280;62437;51.544;-3.276;2023-03-23T04:58:36;98971.73;;;6.92;63.88
74079;BME280;62437;51.544;-3.276;2023-03-23T05:01:02;98971.42;;;5.29;69.12
74079;BME280;62437;51.544;-3.276;2023-03-23T05:03:27;98977.79;;;4.80;70.60
74079;BME280;62437;51.544;-3.276;2023-03-23T05:05:53;98983.70;;;4.97;70.31
74079;BME280;62437;51.544;-3.276;2023-03-23T05:08:19;98985.20;;;6.00;67.25
74079;BME280;62437;51.544;-3.276;2023-03-23T05:10:50;98986.06;;;4.95;71.14
74079;BME280;62437;51.544;-3.276;2023-03-23T05:13:10;98990.03;;;6.21;66.90
74079;BME280;62437;51.544;-3.276;2023-03-23T05:15:36;98989.26;;;5.74;69.55
74079;BME280;62437;51.544;-3.276;2023-03-23T05:18:01;98987.85;;;5.85;68.52
74079;BME280;62437;51.544;-3.276;2023-03-23T05:20:27;98988.89;;;5.07;70.60
74079;BME280;62437;51.544;-3.276;2023-03-23T05:22:53;98983.99;;;7.32;63.99
74079;BME280;62437;51.544;-3.276;2023-03-23T05:25:19;98980.80;;;6.58;64.80
74079;BME280;62437;51.544;-3.276;2023-03-23T05:27:45;98981.52;;;5.50;68.05
74079;BME280;62437;51.544;-3.276;2023-03-23T05:30:10;98981.72;;;5.01;70.33
74079;BME280;62437;51.544;-3.276;2023-03-23T05:32:36;98983.61;;;4.78;70.07
74079;BME280;62437;51.544;-3.276;2023-03-23T05:35:02;98979.68;;;6.38;65.42
74079;BME280;62437;51.544;-3.276;2023-03-23T05:37:28;98983.37;;;6.02;65.49
74079;BME280;62437;51.544;-3.276;2023-03-23T05:39:53;98980.28;;;6.07;65.23
74079;BME280;62437;51.544;-3.276;2023-03-23T05:42:19;98976.37;;;6.44;65.52
74079;BME280;62437;51.544;-3.276;2023-03-23T05:44:44;98975.91;;;5.26;69.87
74079;BME280;62437;51.544;-3.276;2023-03-23T05:47:10;98976.90;;;6.11;66.08
74079;BME280;62437;51.544;-3.276;2023-03-23T05:49:36;98973.86;;;6.70;64.05
74079;BME280;62437;51.544;-3.276;2023-03-23T05:52:02;98972.32;;;6.23;66.16
74079;BME280;62437;51.544;-3.276;2023-03-23T05:54:27;98969.73;;;5.25;69.58
74079;BME280;62437;51.544;-3.276;2023-03-23T05:56:53;98971.43;;;5.47;69.29
74079;BME280;62437;51.544;-3.276;2023-03-23T05:59:19;98967.89;;;6.96;64.79
74079;BME280;62437;51.544;-3.276;2023-03-23T06:01:44;98965.69;;;6.25;66.14
74079;BME280;62437;51.544;-3.276;2023-03-23T06:04:10;98959.92;;;6.71;65.53
74079;BME280;62437;51.544;-3.276;2023-03-23T06:06:36;98963.98;;;4.94;73.63
74079;BME280;62437;51.544;-3.276;2023-03-23T06:09:02;98955.52;;;6.61;66.59
74079;BME280;62437;51.544;-3.276;2023-03-23T06:11:27;98944.48;;;7.20;64.03
74079;BME280;62437;51.544;-3.276;2023-03-23T06:13:53;98935.67;;;6.63;66.36
74079;BME280;62437;51.544;-3.276;2023-03-23T06:16:19;98944.12;;;5.45;69.79
74079;BME280;62437;51.544;-3.276;2023-03-23T06:18:44;98947.39;;;6.77;66.52
74079;BME280;62437;51.544;-3.276;2023-03-23T06:21:11;98944.48;;;5.80;70.72
74079;BME280;62437;51.544;-3.276;2023-03-23T06:23:36;98954.96;;;6.16;69.83
74079;BME280;62437;51.544;-3.276;2023-03-23T06:26:05;98945.46;;;5.46;71.38
74079;BME280;62437;51.544;-3.276;2023-03-23T06:28:27;98939.59;;;6.07;72.28
74079;BME280;62437;51.544;-3.276;2023-03-23T06:30:53;98936.50;;;5.64;72.58
74079;BME280;62437;51.544;-3.276;2023-03-23T06:33:19;98937.84;;;6.31;69.30
74079;BME280;62437;51.544;-3.276;2023-03-23T06:35:44;98949.58;;;6.44;69.52
74079;BME280;62437;51.544;-3.276;2023-03-23T06:38:10;98949.31;;;6.53;69.42
74079;BME280;62437;51.544;-3.276;2023-03-23T06:40:36;98954.80;;;6.29;70.47
74079;BME280;62437;51.544;-3.276;2023-03-23T06:43:02;98954.77;;;5.38;73.59
74079;BME280;62437;51.544;-3.276;2023-03-23T06:45:27;98958.69;;;5.77;73.13
74079;BME280;62437;51.544;-3.276;2023-03-23T06:47:53;98962.45;;;6.52;69.89
74079;BME280;62437;51.544;-3.276;2023-03-23T06:50:19;98962.09;;;6.36;70.31
74079;BME280;62437;51.544;-3.276;2023-03-23T06:52:46;98962.12;;;6.89;69.07
74079;BME280;62437;51.544;-3.276;2023-03-23T06:55:10;98963.95;;;7.36;66.70
74079;BME280;62437;51.544;-3.276;2023-03-23T06:57:36;98969.42;;;6.27;70.59
74079;BME280;62437;51.544;-3.276;2023-03-23T07:00:02;98969.41;;;6.27;70.83
74079;BME280;62437;51.544;-3.276;2023-03-23T07:02:27;98969.32;;;6.81;69.38
74079;BME280;62437;51.544;-3.276;2023-03-23T07:04:53;98965.53;;;6.92;68.75
74079;BME280;62437;51.544;-3.276;2023-03-23T07:07:18;98968.61;;;5.81;72.94
74079;BME280;62437;51.544;-3.276;2023-03-23T07:09:44;98958.28;;;6.94;69.18
74079;BME280;62437;51.544;-3.276;2023-03-23T07:12:10;98957.19;;;6.13;72.76
74079;BME280;62437;51.544;-3.276;2023-03-23T07:14:36;98959.28;;;6.42;71.86
74079;BME280;62437;51.544;-3.276;2023-03-23T07:17:03;98955.44;;;7.05;68.39
74079;BME280;62437;51.544;-3.276;2023-03-23T07:19:27;98964.85;;;6.93;69.79
74079;BME280;62437;51.544;-3.276;2023-03-23T07:21:53;98959.71;;;7.19;68.39
74079;BME280;62437;51.544;-3.276;2023-03-23T07:24:18;98961.29;;;6.89;69.52
74079;BME280;62437;51.544;-3.276;2023-03-23T07:26:44;98956.49;;;7.35;68.24
74079;BME280;62437;51.544;-3.276;2023-03-23T07:29:10;98961.91;;;6.92;69.51
74079;BME280;62437;51.544;-3.276;2023-03-23T07:31:36;98966.28;;;6.70;70.83
74079;BME280;62437;51.544;-3.276;2023-03-23T07:34:02;98967.04;;;6.41;71.16
74079;BME280;62437;51.544;-3.276;2023-03-23T07:36:27;98967.99;;;6.08;72.59
74079;BME280;62437;51.544;-3.276;2023-03-23T07:38:53;98968.60;;;6.65;70.71
74079;BME280;62437;51.544;-3.276;2023-03-23T07:41:18;98969.52;;;6.31;72.17
74079;BME280;62437;51.544;-3.276;2023-03-23T07:43:44;98965.64;;;6.45;71.71
74079;BME280;62437;51.544;-3.276;2023-03-23T07:46:10;98969.31;;;6.08;73.34
74079;BME280;62437;51.544;-3.276;2023-03-23T07:48:35;98965.72;;;6.16;73.18
74079;BME280;62437;51.544;-3.276;2023-03-23T07:51:01;98963.61;;;6.18;72.22
74079;BME280;62437;51.544;-3.276;2023-03-23T07:53:27;98962.10;;;6.66;71.63
74079;BME280;62437;51.544;-3.276;2023-03-23T07:55:53;98960.38;;;6.22;72.47
74079;BME280;62437;51.544;-3.276;2023-03-23T07:58:18;98965.64;;;6.26;72.78
74079;BME280;62437;51.544;-3.276;2023-03-23T08:00:45;98970.93;;;6.61;72.64
74079;BME280;62437;51.544;-3.276;2023-03-23T08:03:10;98978.24;;;5.78;74.72
74079;BME280;62437;51.544;-3.276;2023-03-23T08:05:35;98974.91;;;6.94;70.27
74079;BME280;62437;51.544;-3.276;2023-03-23T08:08:01;98971.05;;;7.02;69.94
74079;BME280;62437;51.544;-3.276;2023-03-23T08:10:27;98974.20;;;6.87;71.05
74079;BME280;62437;51.544;-3.276;2023-03-23T08:12:54;98978.79;;;7.32;69.03
74079;BME280;62437;51.544;-3.276;2023-03-23T08:15:19;98980.54;;;6.55;72.07
74079;BME280;62437;51.544;-3.276;2023-03-23T08:17:44;98983.67;;;7.01;70.75
74079;BME280;62437;51.544;-3.276;2023-03-23T08:20:11;98988.49;;;7.21;70.43
74079;BME280;62437;51.544;-3.276;2023-03-23T08:22:35;98995.79;;;7.20;69.23
74079;BME280;62437;51.544;-3.276;2023-03-23T08:25:01;98996.81;;;6.25;73.03
74079;BME280;62437;51.544;-3.276;2023-03-23T08:27:27;98995.74;;;6.84;70.87
74079;BME280;62437;51.544;-3.276;2023-03-23T08:29:52;98993.60;;;6.73;72.43
74079;BME280;62437;51.544;-3.276;2023-03-23T08:32:18;98996.00;;;6.83;70.77
74079;BME280;62437;51.544;-3.276;2023-03-23T08:34:44;98991.32;;;7.28;69.84
74079;BME280;62437;51.544;-3.276;2023-03-23T08:37:09;98996.27;;;6.65;72.76
74079;BME280;62437;51.544;-3.276;2023-03-23T08:39:35;98992.61;;;6.70;72.50
74079;BME280;62437;51.544;-3.276;2023-03-23T08:42:01;99005.30;;;7.10;70.83
74079;BME280;62437;51.544;-3.276;2023-03-23T08:44:26;98996.80;;;6.71;71.21
74079;BME280;62437;51.544;-3.276;2023-03-23T08:46:52;99003.70;;;6.90;71.59
74079;BME280;62437;51.544;-3.276;2023-03-23T08:49:18;99002.49;;;7.05;71.18
74079;BME280;62437;51.544;-3.276;2023-03-23T08:51:44;99003.28;;;6.77;71.89
74079;BME280;62437;51.544;-3.276;2023-03-23T08:54:09;99001.10;;;6.99;71.60
74079;BME280;62437;51.544;-3.276;2023-03-23T08:56:35;99002.63;;;5.95;74.06
74079;BME280;62437;51.544;-3.276;2023-03-23T08:59:01;98990.27;;;6.47;74.62
74079;BME280;62437;51.544;-3.276;2023-03-23T09:01:26;98994.28;;;6.10;74.39
74079;BME280;62437;51.544;-3.276;2023-03-23T09:03:52;98997.39;;;7.60;69.10
74079;BME280;62437;51.544;-3.276;2023-03-23T09:06:18;98986.83;;;6.57;71.35
74079;BME280;62437;51.544;-3.276;2023-03-23T09:08:43;98987.38;;;6.68;71.79
74079;BME280;62437;51.544;-3.276;2023-03-23T09:11:09;98991.60;;;6.75;70.50
74079;BME280;62437;51.544;-3.276;2023-03-23T09:13:36;98987.44;;;7.32;70.91
74079;BME280;62437;51.544;-3.276;2023-03-23T09:16:01;98987.70;;;6.79;71.07
74079;BME280;62437;51.544;-3.276;2023-03-23T09:18:26;98986.48;;;6.87;71.36
74079;BME280;62437;51.544;-3.276;2023-03-23T09:20:54;98986.14;;;6.86;70.52
74079;BME280;62437;51.544;-3.276;2023-03-23T09:23:17;98977.01;;;7.54;69.26
74079;BME280;62437;51.544;-3.276;2023-03-23T09:25:44;98988.27;;;7.45;69.63
74079;BME280;62437;51.544;-3.276;2023-03-23T09:28:09;98982.23;;;7.90;69.20
74079;BME280;62437;51.544;-3.276;2023-03-23T09:30:36;98981.68;;;7.49;69.09
74079;BME280;62437;51.544;-3.276;2023-03-23T09:33:01;98983.21;;;7.79;67.75
74079;BME280;62437;51.544;-3.276;2023-03-23T09:35:26;98979.87;;;8.02;69.65
74079;BME280;62437;51.544;-3.276;2023-03-23T09:37:52;98984.45;;;7.25;70.68
74079;BME280;62437;51.544;-3.276;2023-03-23T09:40:19;98980.42;;;7.89;69.99
74079;BME280;62437;51.544;-3.276;2023-03-23T09:42:56;98978.49;;;7.68;68.21
74079;BME280;62437;51.544;-3.276;2023-03-23T09:45:15;98983.25;;;7.55;68.44
74079;BME280;62437;51.544;-3.276;2023-03-23T09:47:41;98978.33;;;7.74;67.85
74079;BME280;62437;51.544;-3.276;2023-03-23T09:50:04;98980.58;;;8.68;66.10
74079;BME280;62437;51.544;-3.276;2023-03-23T09:52:33;98974.20;;;7.37;67.71
74079;BME280;62437;51.544;-3.276;2023-03-23T09:54:53;98976.73;;;7.94;69.04
74079;BME280;62437;51.544;-3.276;2023-03-23T09:57:22;98976.54;;;7.48;70.51
74079;BME280;62437;51.544;-3.276;2023-03-23T09:59:49;98975.84;;;7.57;70.80
74079;BME280;62437;51.544;-3.276;2023-03-23T10:02:13;98981.69;;;7.54;71.53
74079;BME280;62437;51.544;-3.276;2023-03-23T10:04:38;98987.47;;;7.46;70.83
74079;BME280;62437;51.544;-3.276;2023-03-23T10:07:09;98997.26;;;6.94;70.87
74079;BME280;62437;51.544;-3.276;2023-03-23T10:09:25;98988.94;;;7.48;68.29
74079;BME280;62437;51.544;-3.276;2023-03-23T10:11:59;98990.30;;;8.01;69.28
74079;BME280;62437;51.544;-3.276;2023-03-23T10:14:26;98993.11;;;7.86;68.69
74079;BME280;62437;51.544;-3.276;2023-03-23T10:16:52;98985.61;;;7.73;69.63
74079;BME280;62437;51.544;-3.276;2023-03-23T10:19:11;98988.56;;;8.20;69.73
74079;BME280;62437;51.544;-3.276;2023-03-23T10:21:37;98982.78;;;7.20;71.05
74079;BME280;62437;51.544;-3.276;2023-03-23T10:24:01;98988.92;;;7.50;72.19
74079;BME280;62437;51.544;-3.276;2023-03-23T10:26:33;98989.92;;;8.10;70.34
74079;BME280;62437;51.544;-3.276;2023-03-23T10:28:52;98993.35;;;7.92;66.92
74079;BME280;62437;51.544;-3.276;2023-03-23T10:31:20;98995.58;;;7.50;67.48
74079;BME280;62437;51.544;-3.276;2023-03-23T10:33:44;98997.73;;;7.81;69.63
74079;BME280;62437;51.544;-3.276;2023-03-23T10:36:12;98999.86;;;8.26;68.02
74079;BME280;62437;51.544;-3.276;2023-03-23T10:38:36;99001.85;;;7.82;66.94
74079;BME280;62437;51.544;-3.276;2023-03-23T10:41:02;99006.84;;;7.76;68.53
74079;BME280;62437;51.544;-3.276;2023-03-23T10:43:25;99013.27;;;6.68;72.28
74079;BME280;62437;51.544;-3.276;2023-03-23T10:45:54;99012.00;;;6.68;73.20
74079;BME280;62437;51.544;-3.276;2023-03-23T10:48:23;99021.77;;;7.94;70.05
74079;BME280;62437;51.544;-3.276;2023-03-23T10:50:43;99018.84;;;7.45;68.10
74079;BME280;62437;51.544;-3.276;2023-03-23T10:53:15;99011.12;;;8.43;67.88
74079;BME280;62437;51.544;-3.276;2023-03-23T10:55:37;99006.92;;;8.68;65.98
74079;BME280;62437;51.544;-3.276;2023-03-23T10:58:00;99002.86;;;9.03;65.69
74079;BME280;62437;51.544;-3.276;2023-03-23T11:00:25;99001.82;;;9.19;65.94
74079;BME280;62437;51.544;-3.276;2023-03-23T11:02:58;99009.79;;;9.21;66.21
74079;BME280;62437;51.544;-3.276;2023-03-23T11:05:18;99005.96;;;9.30;64.73
74079;BME280;62437;51.544;-3.276;2023-03-23T11:07:41;99009.48;;;9.16;64.85
74079;BME280;62437;51.544;-3.276;2023-03-23T11:10:16;99012.55;;;9.37;65.10
74079;BME280;62437;51.544;-3.276;2023-03-23T11:12:33;99014.62;;;9.36;64.29
74079;BME280;62437;51.544;-3.276;2023-03-23T11:15:04;99010.16;;;8.85;67.37
74079;BME280;62437;51.544;-3.276;2023-03-23T11:17:25;99008.01;;;8.17;65.01
74079;BME280;62437;51.544;-3.276;2023-03-23T11:19:50;99008.74;;;9.28;63.57
74079;BME280;62437;51.544;-3.276;2023-03-23T11:22:20;99008.64;;;9.31;66.07
74079;BME280;62437;51.544;-3.276;2023-03-23T11:24:42;98998.85;;;9.29;63.02
74079;BME280;62437;51.544;-3.276;2023-03-23T11:27:07;98983.84;;;8.61;63.72
74079;BME280;62437;51.544;-3.276;2023-03-23T11:29:32;98980.32;;;8.56;65.85
74079;BME280;62437;51.544;-3.276;2023-03-23T11:32:03;98979.39;;;8.58;66.36
74079;BME280;62437;51.544;-3.276;2023-03-23T11:34:25;98964.17;;;9.77;64.07
74079;BME280;62437;51.544;-3.276;2023-03-23T11:36:50;98962.32;;;9.40;63.85
74079;BME280;62437;51.544;-3.276;2023-03-23T11:39:21;98963.06;;;9.26;66.43
74079;BME280;62437;51.544;-3.276;2023-03-23T11:41:40;98958.60;;;9.11;64.18
74079;BME280;62437;51.544;-3.276;2023-03-23T11:44:10;98958.06;;;9.67;63.88
74079;BME280;62437;51.544;-3.276;2023-03-23T11:46:34;98954.00;;;9.12;61.23
74079;BME280;62437;51.544;-3.276;2023-03-23T11:49:00;98949.01;;;9.48;65.18
74079;BME280;62437;51.544;-3.276;2023-03-23T11:51:30;98947.81;;;9.51;66.45
74079;BME280;62437;51.544;-3.276;2023-03-23T11:53:54;98944.86;;;9.86;64.51
74079;BME280;62437;51.544;-3.276;2023-03-23T11:56:23;98946.46;;;8.86;60.33
74079;BME280;62437;51.544;-3.276;2023-03-23T11:58:40;98945.74;;;9.15;64.32
74079;BME280;62437;51.544;-3.276;2023-03-23T12:01:11;98955.18;;;9.51;67.31
74079;BME280;62437;51.544;-3.276;2023-03-23T12:03:43;98952.26;;;8.44;63.06
74079;BME280;62437;51.544;-3.276;2023-03-23T12:06:02;98940.42;;;8.65;63.92
74079;BME280;62437;51.544;-3.276;2023-03-23T12:08:36;98935.73;;;9.31;65.08
74079;BME280;62437;51.544;-3.276;2023-03-23T12:10:53;98925.46;;;9.46;64.13
74079;BME280;62437;51.544;-3.276;2023-03-23T12:13:26;98940.12;;;8.69;63.30
74079;BME280;62437;51.544;-3.276;2023-03-23T12:15:45;98931.95;;;8.59;61.07
74079;BME280;62437;51.544;-3.276;2023-03-23T12:18:14;98925.12;;;9.72;64.91
74079;BME280;62437;51.544;-3.276;2023-03-23T12:20:39;98925.75;;;8.88;62.78
74079;BME280;62437;51.544;-3.276;2023-03-23T12:23:05;98928.54;;;9.83;64.20
74079;BME280;62437;51.544;-3.276;2023-03-23T12:27:51;98938.21;;;10.12;63.52
74079;BME280;62437;51.544;-3.276;2023-03-23T12:30:23;98937.37;;;9.63;65.44
74079;BME280;62437;51.544;-3.276;2023-03-23T12:32:51;98953.09;;;7.94;68.72
74079;BME280;62437;51.544;-3.276;2023-03-23T12:35:14;98952.04;;;8.01;70.36
74079;BME280;62437;51.544;-3.276;2023-03-23T12:37:40;98941.62;;;8.55;70.68
74079;BME280;62437;51.544;-3.276;2023-03-23T12:40:11;98947.79;;;8.34;71.84
74079;BME280;62437;51.544;-3.276;2023-03-23T12:42:28;98946.21;;;8.30;71.96
74079;BME280;62437;51.544;-3.276;2023-03-23T12:44:52;98938.28;;;8.73;69.39
74079;BME280;62437;51.544;-3.276;2023-03-23T12:47:23;98936.94;;;8.54;70.94
74079;BME280;62437;51.544;-3.276;2023-03-23T12:49:42;98928.20;;;9.16;68.04
74079;BME280;62437;51.544;-3.276;2023-03-23T12:52:11;98924.66;;;9.02;70.25
74079;BME280;62437;51.544;-3.276;2023-03-23T12:54:34;98918.76;;;9.34;68.66
74079;BME280;62437;51.544;-3.276;2023-03-23T12:57:00;98914.45;;;9.67;67.68
74079;BME280;62437;51.544;-3.276;2023-03-23T12:59:28;98906.12;;;9.55;68.42
74079;BME280;62437;51.544;-3.276;2023-03-23T13:01:50;98900.27;;;8.29;70.40
74079;BME280;62437;51.544;-3.276;2023-03-23T13:04:15;98892.55;;;8.57;71.63